Time;durP1;ratioP1;P1;durP2;ratioP2;P2;SDS_P1;SDS_P2;PMS_P1;PMS_P2;Temp;Humidity;BMP_temperature;BMP_pressure;BME280_temperature;BME280_humidity;BME280_pressure;Samples;Min_cycle;Max_cycle;Signal;HPM_P1;HPM_P2
2023/01/26 00:02:30;;;;;;;42.10;24.23;;;;;;;1.16;68.37;102005.52;1747632;81;21186;-59
2023/01/26 00:05:35;;;;;;;40.58;23.95;;;;;;;1.24;68.49;102002.44;1741617;82;21230;-58
2023/01/26 00:08:49;;;;;;;39.38;24.12;;;;;;;1.28;68.45;101999.53;1741734;82;21190;-58
2023/01/26 00:11:55;;;;;;;39.88;23.50;;;;;;;1.33;68.41;102002.84;1741740;82;21198;-58
2023/01/26 00:15:01;;;;;;;41.18;24.65;;;;;;;1.37;68.40;102007.61;1741786;82;21393;-58
2023/01/26 00:18:08;;;;;;;40.60;24.75;;;;;;;1.39;68.37;102002.55;1741691;82;21211;-59
2023/01/26 00:21:15;;;;;;;39.67;22.93;;;;;;;1.42;68.37;101999.70;1741669;82;21198;-58
2023/01/26 00:24:20;;;;;;;37.45;22.98;;;;;;;1.45;68.32;102007.63;1722871;82;21222;-57
2023/01/26 00:27:26;;;;;;;39.65;23.98;;;;;;;1.46;68.22;102003.09;1741835;82;21182;-58
2023/01/26 00:30:33;;;;;;;55.38;31.52;;;;;;;1.46;68.12;102000.39;1752294;81;21201;-59
2023/01/26 00:33:39;;;;;;;91.53;48.48;;;;;;;1.45;68.02;102002.70;1798810;79;21242;-59
2023/01/26 00:36:46;;;;;;;60.23;36.48;;;;;;;1.47;68.17;102003.50;1761358;81;21277;-58
2023/01/26 00:39:51;;;;;;;62.50;37.48;;;;;;;1.50;68.22;101999.30;1780717;80;21196;-58
2023/01/26 00:42:58;;;;;;;54.33;33.30;;;;;;;1.48;68.09;102002.08;1741352;82;21201;-57
2023/01/26 00:46:04;;;;;;;61.77;36.17;;;;;;;1.50;68.22;102004.23;1750481;82;21236;-59
2023/01/26 00:49:10;;;;;;;57.70;35.90;;;;;;;1.54;68.33;102003.10;1796702;80;21267;-59
2023/01/26 00:52:16;;;;;;;66.55;37.78;;;;;;;1.59;68.43;101999.31;1796531;79;21189;-58
2023/01/26 00:55:22;;;;;;;58.65;34.63;;;;;;;1.61;68.44;102004.13;1796295;80;21224;-57
2023/01/26 00:58:29;;;;;;;46.10;28.27;;;;;;;1.64;68.51;101998.56;1774810;80;21181;-57
2023/01/26 01:01:35;;;;;;;43.10;26.00;;;;;;;1.64;68.43;101996.75;1796145;80;21317;-58
2023/01/26 01:04:40;;;;;;;43.38;24.47;;;;;;;1.66;68.47;101999.37;1796666;80;21201;-58
2023/01/26 01:07:47;;;;;;;41.40;24.75;;;;;;;1.67;68.40;101995.70;1795943;80;21184;-59
2023/01/26 01:10:53;;;;;;;37.83;23.35;;;;;;;1.63;68.23;101995.48;1795779;80;21241;-58
2023/01/26 01:14:00;;;;;;;52.20;31.05;;;;;;;1.62;68.26;101997.80;1795642;80;21177;-58
2023/01/26 01:17:07;;;;;;;51.77;32.42;;;;;;;1.62;68.25;101995.10;1795784;80;21334;-58
2023/01/26 01:20:15;;;;;;;55.10;31.57;;;;;;;1.58;68.11;101994.38;1796251;80;21259;-58
2023/01/26 01:23:21;;;;;;;50.85;27.52;;;;;;;1.53;67.97;101994.62;1796348;80;21169;-57
2023/01/26 01:26:26;;;;;;;51.42;31.35;;;;;;;1.55;68.10;101991.84;1796320;80;21177;-58
2023/01/26 01:29:32;;;;;;;48.23;30.35;;;;;;;1.56;68.14;101992.23;1795940;80;21188;-57
2023/01/26 01:32:43;;;;;;;45.35;28.10;;;;;;;1.56;68.19;101986.83;1795467;80;21315;-58
2023/01/26 01:35:49;;;;;;;48.23;29.63;;;;;;;1.55;68.08;101989.99;1779011;79;21236;-58
2023/01/26 01:38:48;;;;;;;45.73;27.17;;;;;;;1.53;67.97;101975.73;1796177;80;21228;-58
2023/01/26 01:41:56;;;;;;;39.42;24.15;;;;;;;1.51;67.91;101984.38;1796658;80;21216;-58
2023/01/26 01:45:36;;;;;;;37.95;24.00;;;;;;;1.55;68.13;101976.50;1796124;80;21209;-58
2023/01/26 01:49:04;;;;;;;37.42;23.30;;;;;;;1.60;68.33;101978.98;1796129;80;21154;-58
2023/01/26 01:52:19;;;;;;;44.03;24.57;;;;;;;1.62;68.38;101974.36;1796119;80;21240;-59
2023/01/26 01:55:25;;;;;;;40.38;23.22;;;;;;;1.65;68.47;101976.05;1796494;80;21218;-59
2023/01/26 01:58:30;;;;;;;35.48;23.22;;;;;;;1.67;68.46;101968.71;1796545;80;21296;-59
2023/01/26 02:01:38;;;;;;;34.00;22.15;;;;;;;1.64;68.26;101980.55;1795506;79;21256;-59
2023/01/26 02:04:44;;;;;;;36.03;23.60;;;;;;;1.64;68.12;101980.55;1795998;80;21363;-60
2023/01/26 02:07:51;;;;;;;37.13;21.62;;;;;;;1.60;67.98;101975.41;1777150;79;21354;-59
2023/01/26 02:10:57;;;;;;;37.60;21.93;;;;;;;1.60;68.05;101973.59;1796319;80;21213;-60
2023/01/26 02:14:05;;;;;;;38.40;22.13;;;;;;;1.64;68.21;101975.63;1777622;79;21256;-59
2023/01/26 02:17:15;;;;;;;34.20;21.93;;;;;;;1.65;68.31;101970.64;1796286;80;21212;-59
2023/01/26 02:20:45;;;;;;;36.58;23.32;;;;;;;1.65;68.32;101967.95;1796561;80;21299;-59
2023/01/26 02:24:12;;;;;;;34.98;22.87;;;;;;;1.63;68.31;101966.68;1796258;80;21758;-59
2023/01/26 02:27:18;;;;;;;28.67;18.20;;;;;;;1.64;68.40;101967.53;1782227;79;21182;-59
2023/01/26 02:30:24;;;;;;;34.67;21.73;;;;;;;1.61;68.35;101954.20;1796469;80;21706;-59
2023/01/26 02:33:34;;;;;;;38.65;24.00;;;;;;;1.59;68.39;101952.08;1796320;80;21189;-59
2023/01/26 02:36:40;;;;;;;34.58;22.80;;;;;;;1.65;68.55;101946.35;1796721;80;21193;-59
2023/01/26 02:40:07;;;;;;;33.55;19.23;;;;;;;1.68;68.64;101945.72;1795764;80;21192;-59
2023/01/26 02:43:14;;;;;;;32.85;20.92;;;;;;;1.72;68.66;101938.30;1796507;80;21268;-59
2023/01/26 02:46:21;;;;;;;29.98;18.37;;;;;;;1.70;68.62;101929.45;1796165;80;21185;-59
2023/01/26 02:52:50;;;;;;;24.77;16.55;;;;;;;1.67;68.51;101928.23;1756719;80;21174;-58
2023/01/26 02:55:57;;;;;;;29.12;17.42;;;;;;;1.65;68.41;101935.06;1796206;80;21213;-57
2023/01/26 02:59:03;;;;;;;25.30;16.57;;;;;;;1.64;68.35;101930.62;1796570;80;21340;-58
2023/01/26 03:02:07;;;;;;;31.80;17.23;;;;;;;1.65;68.41;101934.21;1795762;79;21213;-58
2023/01/26 03:05:15;;;;;;;29.65;17.60;;;;;;;1.64;68.44;101926.58;1795996;80;21225;-58
2023/01/26 03:08:23;;;;;;;24.60;15.08;;;;;;;1.65;68.49;101922.06;1796354;80;21178;-59
2023/01/26 03:11:40;;;;;;;19.15;13.35;;;;;;;1.59;68.25;101927.80;1777272;79;21189;-57
2023/01/26 03:14:39;;;;;;;29.20;16.20;;;;;;;1.50;68.25;101919.23;1796727;80;21213;-59
2023/01/26 03:17:46;;;;;;;18.82;13.62;;;;;;;1.45;68.18;101928.50;1796502;80;21193;-57
2023/01/26 03:27:47;;;;;;;22.22;13.83;;;;;;;1.45;68.31;101922.64;1796080;80;21217;-59
2023/01/26 03:30:52;;;;;;;24.23;14.33;;;;;;;1.48;68.55;101920.24;1796454;80;21264;-59
2023/01/26 03:33:58;;;;;;;20.40;14.40;;;;;;;1.48;68.60;101915.73;1795674;79;21189;-59
2023/01/26 03:37:04;;;;;;;21.65;13.00;;;;;;;1.48;68.64;101914.84;1796807;77;21229;-59
2023/01/26 03:57:14;;;;;;;26.02;16.15;;;;;;;1.61;68.61;101916.41;1744162;82;21232;-59
2023/01/26 04:00:21;;;;;;;20.70;14.65;;;;;;;1.62;68.64;101923.58;1804500;79;21686;-59
2023/01/26 04:10:19;;;;;;;22.75;15.23;;;;;;;1.55;68.51;101921.18;1810831;79;21214;-58
2023/01/26 04:23:41;;;;;;;26.90;15.70;;;;;;;1.41;68.22;101910.75;1796324;79;21173;-57
2023/01/26 04:26:49;;;;;;;20.75;14.15;;;;;;;1.36;68.24;101913.66;1746951;82;21217;-57
2023/01/26 04:29:59;;;;;;;21.05;14.65;;;;;;;1.32;68.17;101916.60;1811028;79;21283;-57
2023/01/26 04:33:06;;;;;;;26.68;15.30;;;;;;;1.29;68.21;101915.41;1795808;79;21216;-57
2023/01/26 04:36:13;;;;;;;22.67;15.72;;;;;;;1.27;68.16;101920.01;1747606;79;21224;-57
2023/01/26 04:39:19;;;;;;;26.45;15.60;;;;;;;1.25;68.09;101919.23;1767257;81;21244;-57
2023/01/26 04:42:24;;;;;;;29.48;16.10;;;;;;;1.28;68.22;101919.96;1755522;81;21197;-56
2023/01/26 04:45:30;;;;;;;27.27;14.65;;;;;;;1.35;68.37;101931.27;1760683;81;21348;-56
2023/01/26 04:48:38;;;;;;;22.48;14.63;;;;;;;1.36;68.37;101936.59;1761558;81;21252;-57
2023/01/26 04:51:45;;;;;;;28.98;15.80;;;;;;;1.38;68.34;101933.34;1761121;81;21256;-56
2023/01/26 04:54:53;;;;;;;26.85;15.78;;;;;;;1.38;68.13;101934.69;1760591;81;21354;-56
2023/01/26 04:58:01;;;;;;;22.80;14.47;;;;;;;1.41;68.16;101941.77;1760187;81;21398;-56
2023/01/26 05:01:07;;;;;;;27.90;16.93;;;;;;;1.42;68.15;101940.34;1762542;80;21407;-56
2023/01/26 05:04:13;;;;;;;26.50;16.25;;;;;;;1.42;68.17;101941.69;1761061;80;21208;-56
2023/01/26 05:07:18;;;;;;;33.23;17.75;;;;;;;1.45;68.23;101942.88;1761370;80;21209;-56
2023/01/26 05:10:25;;;;;;;29.65;16.32;;;;;;;1.48;68.26;101947.23;1761313;80;21213;-56
2023/01/26 05:13:40;;;;;;;28.45;16.27;;;;;;;1.48;68.20;101946.77;1735735;81;21594;-57
2023/01/26 05:16:48;;;;;;;24.32;16.07;;;;;;;1.41;68.03;101946.67;1804910;79;21244;-55
2023/01/26 05:20:04;;;;;;;27.98;16.87;;;;;;;1.37;67.96;101946.91;1785026;78;21196;-57
2023/01/26 05:23:19;;;;;;;34.45;19.77;;;;;;;1.32;67.92;101946.27;1789832;78;21235;-56
2023/01/26 05:26:24;;;;;;;25.20;14.80;;;;;;;1.33;68.00;101945.34;1799338;79;21201;-55
2023/01/26 05:29:32;;;;;;;28.62;15.05;;;;;;;1.32;68.04;101954.36;1760526;81;21217;-55
2023/01/26 05:32:41;;;;;;;22.05;14.83;;;;;;;1.20;67.87;101947.80;1742506;81;21189;-56
2023/01/26 07:31:29;;;;;;;32.65;20.12;;;;;;;1.58;67.60;101965.16;1781558;80;28234;-56
2023/01/26 07:34:44;;;;;;;29.63;18.00;;;;;;;1.54;67.30;101970.72;1779041;80;21844;-57
2023/01/26 07:37:57;;;;;;;31.20;17.57;;;;;;;1.59;67.39;101968.28;1722024;81;21206;-58
2023/01/26 07:41:26;;;;;;;34.13;21.17;;;;;;;1.67;67.58;101972.77;1714981;81;21252;-57
2023/01/26 07:45:10;;;;;;;30.60;18.27;;;;;;;1.72;67.68;101964.83;1768981;81;21388;-58
2023/01/26 07:48:21;;;;;;;28.98;17.85;;;;;;;1.75;67.60;101967.83;1733061;81;21198;-58
2023/01/26 07:51:28;;;;;;;30.92;17.57;;;;;;;1.81;67.63;101959.44;1769354;81;21219;-58
2023/01/26 07:55:06;;;;;;;30.90;19.40;;;;;;;1.87;67.65;101964.50;1752419;81;21872;-57
2023/01/26 07:58:26;;;;;;;28.15;17.05;;;;;;;1.93;67.62;101964.16;1750442;81;21234;-59
2023/01/26 08:01:45;;;;;;;29.32;16.57;;;;;;;1.91;67.36;101961.55;1750875;81;21894;-58
2023/01/26 08:05:13;;;;;;;38.50;22.55;;;;;;;1.74;66.92;101966.09;1751222;81;21305;-58
2023/01/26 08:08:22;;;;;;;62.50;31.12;;;;;;;1.71;67.06;101955.47;1747947;81;21715;-56
2023/01/26 08:11:42;;;;;;;105.30;47.78;;;;;;;1.78;67.29;101959.56;1769057;81;21321;-57
2023/01/26 08:15:02;;;;;;;82.08;38.35;;;;;;;1.76;67.25;101961.50;1747529;80;22194;-57
2023/01/26 08:18:30;;;;;;;46.02;26.20;;;;;;;1.84;67.41;101964.17;1769574;80;21723;-59
2023/01/26 08:21:54;;;;;;;35.40;19.62;;;;;;;1.93;67.47;101962.81;1769706;80;21199;-58
2023/01/26 08:25:27;;;;;;;34.18;19.73;;;;;;;1.98;67.46;101964.80;1745151;81;21375;-58
2023/01/26 08:28:52;;;;;;;38.08;20.20;;;;;;;2.05;67.41;101966.19;1767971;81;21199;-58
2023/01/26 08:32:26;;;;;;;39.75;18.67;;;;;;;2.13;67.32;101966.18;1747866;81;21755;-58
2023/01/26 08:35:40;;;;;;;34.80;17.12;;;;;;;2.15;67.17;101971.03;1756019;81;21372;-57
2023/01/26 08:38:56;;;;;;;27.20;17.55;;;;;;;2.20;67.18;101966.72;1755534;81;21199;-58
2023/01/26 08:42:24;;;;;;;29.52;16.82;;;;;;;2.25;67.12;101962.79;1755875;81;21286;-58
2023/01/26 08:45:47;;;;;;;47.33;27.10;;;;;;;2.26;66.93;101967.73;1696998;82;21230;-58
2023/01/26 08:49:06;;;;;;;65.30;31.65;;;;;;;2.18;66.64;101957.81;1725268;83;21230;-60
2023/01/26 08:52:23;;;;;;;48.20;25.75;;;;;;;2.16;66.69;101967.83;1725578;83;21377;-59
2023/01/26 08:55:34;;;;;;;35.23;19.67;;;;;;;2.16;66.62;101963.77;1712656;82;21223;-58
2023/01/26 08:59:01;;;;;;;27.35;17.05;;;;;;;2.11;66.51;101965.38;1713222;82;21790;-58
2023/01/26 09:02:24;;;;;;;35.58;20.75;;;;;;;2.18;66.80;101959.17;1725970;83;21270;-58
2023/01/26 09:05:52;;;;;;;30.65;19.05;;;;;;;2.29;66.95;101949.99;1725950;83;21290;-58
2023/01/26 09:09:13;;;;;;;33.50;20.25;;;;;;;2.34;66.83;101951.50;1675566;84;21245;-59
2023/01/26 09:12:30;;;;;;;30.05;18.17;;;;;;;2.41;66.71;101947.98;1671540;86;21419;-59
2023/01/26 09:15:46;;;;;;;32.83;18.95;;;;;;;2.49;66.76;101948.42;1658117;86;21805;-58
2023/01/26 09:19:04;;;;;;;35.00;19.35;;;;;;;2.50;66.69;101929.88;1657924;80;21261;-57
2023/01/26 09:22:18;;;;;;;31.23;20.05;;;;;;;2.43;66.42;101936.11;1682549;83;21382;-59
2023/01/26 09:25:33;;;;;;;39.35;22.37;;;;;;;2.36;66.33;101933.34;1666627;86;21583;-58
2023/01/26 09:29:06;;;;;;;49.30;27.90;;;;;;;2.36;66.34;101914.43;1659258;86;21758;-58
2023/01/26 09:32:42;;;;;;;53.68;29.25;;;;;;;2.28;66.18;101920.77;1664466;86;21197;-57
2023/01/26 09:36:17;;;;;;;38.90;23.60;;;;;;;2.34;66.35;101922.24;1661908;86;21264;-57
2023/01/26 09:39:35;;;;;;;;;;;;;;;2.33;66.23;101917.31;1644798;86;21229;-57
2023/01/26 09:43:40;;;;;;;32.10;17.62;;;;;;;2.33;66.36;101925.91;1636958;85;20250;-58
2023/01/26 09:51:01;;;;;;;30.75;18.52;;;;;;;2.30;66.19;101915.28;1701872;81;21229;-59
2023/01/26 09:54:39;;;;;;;24.35;16.82;;;;;;;2.27;66.11;101922.18;1738411;80;21712;-58
2023/01/26 09:58:14;;;;;;;27.58;18.12;;;;;;;2.37;66.31;101919.37;1753597;79;21760;-58
2023/01/26 10:01:55;;;;;;;31.68;18.55;;;;;;;2.45;66.47;101914.40;1755707;80;21204;-58
2023/01/26 10:05:15;;;;;;;29.35;18.20;;;;;;;2.50;66.43;101910.97;1734402;82;21245;-59
2023/01/26 10:08:33;;;;;;;30.10;17.95;;;;;;;2.58;66.46;101914.10;1714405;83;21223;-59
2023/01/26 10:12:00;;;;;;;26.05;17.00;;;;;;;2.67;66.53;101908.16;1721030;81;21546;-58
2023/01/26 10:15:31;;;;;;;27.17;17.45;;;;;;;2.76;66.56;101897.69;1722715;82;21195;-58
2023/01/26 10:19:13;;;;;;;28.42;16.17;;;;;;;2.83;66.47;101896.84;1732175;80;21445;-58
2023/01/26 10:22:52;;;;;;;27.10;17.05;;;;;;;2.88;66.32;101897.45;1729481;81;21176;-58
2023/01/26 10:26:00;;;;;;;46.58;29.27;;;;;;;2.85;65.97;101893.58;1739450;82;21229;-59
2023/01/26 10:29:22;;;;;;;37.55;22.50;;;;;;;2.87;65.88;101899.78;1773781;81;21404;-57
2023/01/26 10:32:34;;;;;;;30.30;19.25;;;;;;;2.85;65.79;101901.19;1689536;83;21229;-59
2023/01/26 10:35:46;;;;;;;44.03;25.15;;;;;;;2.84;65.84;101889.11;1767214;80;21506;-57
2023/01/26 10:39:04;;;;;;;38.17;23.47;;;;;;;2.89;65.95;101889.25;1737476;81;21224;-59
2023/01/26 10:42:28;;;;;;;34.00;19.87;;;;;;;2.96;66.04;101896.52;1742430;80;21220;-57
2023/01/26 10:45:53;;;;;;;34.38;20.30;;;;;;;2.96;66.00;101897.87;1733615;81;21216;-58
2023/01/26 10:49:10;;;;;;;31.15;18.20;;;;;;;2.89;65.86;101892.42;1769572;80;21200;-57
2023/01/26 10:52:29;;;;;;;28.52;18.60;;;;;;;2.85;65.79;101893.58;1742772;81;21823;-57
2023/01/26 10:55:47;;;;;;;31.37;18.82;;;;;;;2.81;65.75;101892.88;1704519;82;21735;-58
2023/01/26 10:59:10;;;;;;;41.28;25.60;;;;;;;2.75;65.63;101884.25;1706195;83;21232;-57
2023/01/26 11:02:46;;;;;;;26.55;18.15;;;;;;;2.61;65.53;101883.72;1718874;82;21414;-57
2023/01/26 11:06:19;;;;;;;33.73;20.23;;;;;;;2.59;65.62;101880.70;1717239;82;21274;-57
2023/01/26 11:10:04;;;;;;;29.52;18.95;;;;;;;2.53;65.66;101873.83;1720361;82;21378;-58
2023/01/26 11:13:37;;;;;;;31.10;19.20;;;;;;;2.55;65.70;101862.92;1718190;83;21243;-58
2023/01/26 11:17:17;;;;;;;31.02;18.57;;;;;;;2.57;65.71;101856.96;1720511;82;21709;-57
2023/01/26 11:20:54;;;;;;;31.27;17.70;;;;;;;2.53;65.62;101857.61;1719933;83;21373;-60
2023/01/26 11:24:26;;;;;;;28.15;17.80;;;;;;;2.22;65.38;101860.31;1719965;82;21208;-57
2023/01/26 11:27:59;;;;;;;30.08;18.67;;;;;;;2.13;65.53;101855.91;1705204;82;21236;-57
2023/01/26 11:42:20;;;;;;;28.00;18.15;;;;;;;2.62;66.00;101842.67;1879321;73;22200;-57
2023/01/26 11:46:23;;;;;;;37.48;19.77;;;;;;;2.56;66.01;101843.91;1791592;77;21722;-57
2023/01/26 11:50:00;;;;;;;28.83;18.12;;;;;;;2.59;65.96;101841.50;1818980;76;21315;-57
2023/01/26 11:53:51;;;;;;;31.25;18.45;;;;;;;2.59;65.95;101830.22;1779810;79;21740;-58
2023/01/26 11:57:32;;;;;;;32.55;18.00;;;;;;;2.68;66.06;101828.81;1780783;79;21382;-56
2023/01/26 12:00:43;;;;;;;27.90;17.60;;;;;;;2.79;65.89;101837.16;1793428;77;21256;-58
2023/01/26 12:04:28;;;;;;;28.40;16.75;;;;;;;2.77;65.68;101831.84;1794410;78;21189;-57
2023/01/26 12:08:37;;;;;;;28.35;17.77;;;;;;;2.74;65.65;101831.16;1786783;79;21696;-58
2023/01/26 12:12:18;;;;;;;31.50;18.70;;;;;;;2.75;65.70;101834.23;1796359;79;21450;-58
2023/01/26 12:15:36;;;;;;;28.73;17.77;;;;;;;2.78;65.65;101831.34;1788056;77;21335;-56
2023/01/26 12:19:23;;;;;;;31.42;18.25;;;;;;;2.73;65.54;101830.27;1772733;79;21412;-58
2023/01/26 12:22:48;;;;;;;26.30;17.02;;;;;;;2.77;65.62;101832.31;1757122;79;21284;-57
2023/01/26 12:26:27;;;;;;;34.90;18.07;;;;;;;2.76;65.60;101830.08;1747933;77;21352;-57
2023/01/26 12:30:19;;;;;;;32.60;18.32;;;;;;;2.80;65.56;101826.73;1783267;79;21184;-56
2023/01/26 12:33:44;;;;;;;28.15;17.42;;;;;;;2.81;65.53;101823.05;1783245;79;21239;-57
2023/01/26 12:37:46;;;;;;;29.02;19.25;;;;;;;2.81;65.40;101827.98;1746732;80;21253;-57
2023/01/26 12:41:34;;;;;;;30.17;17.85;;;;;;;2.81;65.36;101822.58;1751347;80;21381;-58
2023/01/26 12:45:12;;;;;;;33.13;20.40;;;;;;;2.78;65.42;101813.77;1754053;77;21167;-57
2023/01/26 12:48:49;;;;;;;30.23;19.37;;;;;;;2.80;65.47;101815.44;1786732;78;21208;-56
2023/01/26 12:52:52;;;;;;;37.03;20.55;;;;;;;2.79;65.47;101816.89;1748054;79;21417;-58
2023/01/26 12:56:14;;;;;;;30.50;19.73;;;;;;;2.79;65.47;101814.18;1781324;76;22085;-57
2023/01/26 13:03:50;;;;;;;29.50;17.40;;;;;;;2.34;65.05;101811.00;1850670;76;22745;-58
2023/01/26 13:07:34;;;;;;;29.10;19.35;;;;;;;2.23;65.13;101807.16;1779070;79;21238;-57
2023/01/26 13:15:44;;;;;;;36.30;17.70;;;;;;;2.20;65.33;101812.74;1770463;79;21378;-57
2023/01/26 13:19:07;;;;;;;28.42;18.37;;;;;;;2.21;65.48;101801.84;1768525;80;21362;-56
2023/01/26 13:22:48;;;;;;;32.05;19.25;;;;;;;2.21;65.39;101800.97;1771645;81;21236;-58
2023/01/26 13:26:29;;;;;;;;;;;;;;;2.22;65.44;101797.33;1752784;80;22196;-57
2023/01/26 13:29:44;;;;;;;28.65;18.00;;;;;;;2.23;65.49;101797.70;1771151;80;20243;-57
2023/01/26 13:33:19;;;;;;;31.30;21.10;;;;;;;2.24;65.52;101799.44;1771278;80;21212;-58
2023/01/26 13:36:35;;;;;;;35.90;19.77;;;;;;;2.22;65.43;101789.22;1770977;80;21757;-56
2023/01/26 13:39:50;;;;;;;37.48;24.63;;;;;;;2.19;65.40;101796.16;1754122;81;21267;-57
2023/01/26 13:43:23;;;;;;;31.55;19.52;;;;;;;2.16;65.41;101790.43;1876281;76;22230;-58
2023/01/26 13:47:21;;;;;;;35.68;22.35;;;;;;;2.09;65.53;101794.93;1716449;82;21322;-57
2023/01/26 13:50:44;;;;;;;32.78;19.27;;;;;;;2.03;65.49;101792.59;1775855;79;21944;-58
2023/01/26 13:54:12;;;;;;;30.45;18.50;;;;;;;1.88;65.32;101798.84;1774526;79;21216;-58
2023/01/26 13:58:23;;;;;;;33.02;19.48;;;;;;;1.77;65.38;101797.22;1803966;79;21216;-57
2023/01/26 14:01:41;;;;;;;31.50;19.25;;;;;;;1.70;65.50;101798.03;1803702;79;21721;-57
2023/01/26 14:05:08;;;;;;;32.33;19.12;;;;;;;1.65;65.50;101803.31;1734480;82;21240;-57
2023/01/26 14:08:33;;;;;;;36.00;19.05;;;;;;;1.55;65.55;101794.84;1719053;82;21325;-57
2023/01/26 14:12:11;;;;;;;32.60;18.45;;;;;;;1.49;65.55;101794.69;1729379;82;21626;-57
2023/01/26 14:15:47;;;;;;;32.63;19.62;;;;;;;1.35;65.34;101789.18;1728353;82;21216;-58
2023/01/26 14:19:26;;;;;;;35.43;19.93;;;;;;;1.13;65.26;101788.59;1729852;83;21224;-57
2023/01/26 14:23:02;;;;;;;33.20;20.27;;;;;;;1.11;65.62;101784.25;1699784;83;21829;-57
2023/01/26 14:26:36;;;;;;;31.05;18.12;;;;;;;1.07;65.67;101777.27;1748721;81;22021;-57
2023/01/26 14:30:23;;;;;;;28.40;19.15;;;;;;;1.05;65.61;101767.91;1765003;80;21272;-58
2023/01/26 14:33:45;;;;;;;31.33;19.17;;;;;;;1.02;65.46;101772.59;1771703;79;21358;-57
2023/01/26 14:37:31;;;;;;;32.00;20.57;;;;;;;0.99;65.48;101765.55;1765600;79;21323;-58
2023/01/26 14:41:07;;;;;;;35.92;20.85;;;;;;;1.03;65.63;101767.11;1761419;79;21237;-58
2023/01/26 14:44:33;;;;;;;45.52;27.45;;;;;;;1.03;65.68;101763.06;1690207;82;21197;-57
2023/01/26 14:52:10;;;;;;;32.78;19.87;;;;;;;0.89;65.68;101761.59;1660062;85;21223;-58
2023/01/26 14:55:56;;;;;;;51.50;22.62;;;;;;;0.94;65.91;101759.98;1652857;85;21584;-58
2023/01/26 14:59:31;;;;;;;41.60;23.65;;;;;;;1.00;65.98;101767.78;1660273;85;21251;-57
2023/01/26 15:03:00;;;;;;;35.10;21.65;;;;;;;0.94;65.81;101768.08;1668484;85;21239;-56
2023/01/26 15:06:40;;;;;;;40.58;21.42;;;;;;;0.94;65.89;101774.81;1640562;85;21299;-57
2023/01/26 15:10:03;;;;;;;36.90;21.60;;;;;;;0.85;65.73;101770.80;1658582;84;21275;-57
2023/01/26 15:13:29;;;;;;;44.63;25.75;;;;;;;0.81;65.69;101768.35;1677378;84;21231;-58
2023/01/26 15:17:20;;;;;;;40.55;22.50;;;;;;;0.73;65.61;101766.53;1670738;85;21256;-57
2023/01/26 15:20:42;;;;;;;35.43;21.20;;;;;;;0.57;65.66;101770.47;1672233;84;21243;-57
2023/01/26 15:24:29;;;;;;;43.63;23.03;;;;;;;0.50;65.67;101770.87;1651285;84;21799;-58
2023/01/26 15:27:54;;;;;;;42.62;23.77;;;;;;;0.28;65.69;101756.28;1673905;84;21319;-57
2023/01/26 15:31:43;;;;;;;54.38;26.82;;;;;;;0.38;66.06;101760.73;1641207;85;21223;-58
2023/01/26 15:35:12;;;;;;;40.50;24.10;;;;;;;0.34;65.92;101761.36;1651211;85;21247;-58
2023/01/26 15:38:34;;;;;;;41.33;22.75;;;;;;;0.30;65.99;101759.78;1650928;86;21250;-57
2023/01/26 15:42:12;;;;;;;40.12;24.30;;;;;;;0.34;66.16;101760.02;1650548;86;21810;-57
2023/01/26 15:45:52;;;;;;;36.42;22.85;;;;;;;0.44;66.29;101758.60;1670352;84;21232;-56
2023/01/26 16:31:16;;;;;;;35.75;20.12;;;;;;;0.49;66.32;101749.78;1681388;84;21217;-57
2023/01/26 16:34:27;;;;;;;35.75;20.40;;;;;;;0.71;66.46;101764.38;1676679;83;21280;-57
2023/01/26 16:37:46;;;;;;;33.45;19.73;;;;;;;0.74;66.46;101762.88;1683182;85;21272;-59
2023/01/26 16:41:09;;;;;;;33.80;21.27;;;;;;;0.73;66.34;101756.60;1682397;85;21272;-58
2023/01/26 16:44:30;;;;;;;35.13;21.15;;;;;;;0.67;66.23;101752.00;1686749;83;21304;-58
2023/01/26 16:47:52;;;;;;;38.42;19.92;;;;;;;0.65;66.30;101754.78;1682984;84;21212;-58
2023/01/26 16:51:16;;;;;;;27.35;17.05;;;;;;;0.68;66.40;101755.96;1660836;85;21356;-61
2023/01/26 16:54:31;;;;;;;39.23;23.55;;;;;;;0.76;66.30;101760.98;1838362;76;22297;-58
2023/01/26 16:57:52;;;;;;;34.53;21.23;;;;;;;0.58;66.08;101758.77;1780195;79;21345;-58
2023/01/26 17:01:07;;;;;;;33.55;19.70;;;;;;;0.51;66.17;101761.86;1784470;79;21381;-58
2023/01/26 17:04:20;;;;;;;45.05;23.10;;;;;;;0.53;66.24;101769.36;1780251;79;21735;-59
2023/01/26 17:07:43;;;;;;;41.92;22.62;;;;;;;0.54;66.25;101769.28;1745669;79;21293;-59
2023/01/26 17:11:02;;;;;;;39.78;22.52;;;;;;;0.59;66.34;101770.39;1772361;80;21272;-60
2023/01/26 17:14:23;;;;;;;42.23;23.27;;;;;;;0.53;66.25;101767.55;1771766;81;21225;-59
2023/01/26 17:17:43;;;;;;;30.90;19.12;;;;;;;0.52;66.30;101760.90;1757048;80;21363;-59
2023/01/26 17:21:00;;;;;;;34.70;20.27;;;;;;;0.55;66.46;101749.49;1761323;80;21840;-58
2023/01/26 17:24:23;;;;;;;33.18;20.02;;;;;;;0.60;66.50;101755.52;1771677;80;21586;-58
2023/01/26 17:27:38;;;;;;;33.25;19.75;;;;;;;0.57;66.41;101755.65;1766210;80;21500;-58
2023/01/26 17:30:52;;;;;;;33.02;19.85;;;;;;;0.57;66.44;101757.00;1772130;81;21204;-57
2023/01/26 17:34:11;;;;;;;32.95;20.12;;;;;;;0.58;66.40;101758.77;1765224;80;21756;-58
2023/01/26 17:37:24;;;;;;;33.65;19.73;;;;;;;0.55;66.30;101752.19;1763159;80;21256;-58
2023/01/26 17:40:53;;;;;;;35.68;22.40;;;;;;;0.52;66.31;101750.12;1763522;80;21768;-59
2023/01/26 17:44:13;;;;;;;39.08;22.05;;;;;;;0.50;66.30;101754.24;1764687;79;21253;-59
2023/01/26 17:47:37;;;;;;;45.38;27.93;;;;;;;0.50;66.37;101754.24;1803488;79;21236;-58
2023/01/26 17:51:11;;;;;;;38.15;22.20;;;;;;;0.47;66.36;101761.14;1751570;80;21248;-59
2023/01/26 17:54:32;;;;;;;39.75;22.13;;;;;;;0.43;66.29;101762.22;1750187;80;21828;-58
2023/01/26 17:57:54;;;;;;;39.42;23.05;;;;;;;0.28;66.08;101762.14;1776454;79;21872;-59
2023/01/26 18:01:19;;;;;;;32.67;20.55;;;;;;;0.25;66.19;101768.56;1774599;79;21328;-57
2023/01/26 18:04:44;;;;;;;36.30;20.25;;;;;;;0.21;66.25;101760.22;1768277;80;21694;-58
2023/01/26 18:08:02;;;;;;;34.03;20.12;;;;;;;0.27;66.51;101761.25;1771405;80;21209;-58
2023/01/26 18:11:17;;;;;;;36.53;20.40;;;;;;;0.33;66.52;101762.31;1771894;80;21422;-58
2023/01/26 18:14:32;;;;;;;33.13;20.48;;;;;;;0.36;66.58;101758.58;1761936;80;21288;-58
2023/01/26 18:17:45;;;;;;;34.43;20.95;;;;;;;0.39;66.59;101749.00;1788835;79;21355;-58
2023/01/26 18:20:57;;;;;;;39.55;23.40;;;;;;;0.44;66.64;101758.60;1788945;79;21292;-59
2023/01/26 18:24:09;;;;;;;41.25;22.95;;;;;;;0.49;66.67;101759.70;1769085;80;21793;-60
2023/01/26 18:27:24;;;;;;;41.90;22.40;;;;;;;0.54;66.74;101757.16;1768719;80;21335;-58
2023/01/26 18:30:39;;;;;;;41.25;23.62;;;;;;;0.58;66.78;101754.72;1770013;81;21363;-59
2023/01/26 18:33:56;;;;;;;40.10;23.07;;;;;;;0.54;66.58;101764.39;1735083;82;21728;-60
2023/01/26 18:37:18;;;;;;;38.45;23.87;;;;;;;0.54;66.68;101759.85;1771111;80;21280;-59
2023/01/26 18:40:28;;;;;;;39.63;23.27;;;;;;;0.52;66.65;101760.43;1770666;79;21197;-59
2023/01/26 18:43:40;;;;;;;39.10;24.45;;;;;;;0.53;66.65;101761.28;1714596;82;21201;-59
2023/01/26 18:46:55;;;;;;;42.70;23.30;;;;;;;0.55;66.70;101760.27;1770496;80;21260;-58
2023/01/26 18:50:08;;;;;;;42.43;23.38;;;;;;;0.57;66.67;101748.06;1759179;81;21333;-59
2023/01/26 18:53:20;;;;;;;46.35;26.52;;;;;;;0.58;66.66;101752.03;1771948;80;21193;-59
2023/01/26 18:56:32;;;;;;;43.83;25.12;;;;;;;0.58;66.67;101752.03;1734872;82;21200;-58
2023/01/26 18:59:58;;;;;;;42.13;23.45;;;;;;;0.52;66.58;101748.31;1730357;82;21192;-58
2023/01/26 19:03:16;;;;;;;47.98;26.80;;;;;;;0.49;66.54;101741.70;1800102;78;21357;-57
2023/01/26 19:06:33;;;;;;;46.40;26.23;;;;;;;0.40;66.48;101743.53;1800551;79;21180;-58
2023/01/26 19:10:05;;;;;;;42.53;24.45;;;;;;;0.41;66.55;101747.11;1800930;79;21180;-59
2023/01/26 19:13:23;;;;;;;53.65;27.77;;;;;;;0.44;66.64;101746.48;1800346;79;21141;-58